createdAt,value
2024-02-07T00:01:15.377Z,13.13
2024-02-07T00:03:44.099Z,12.20
2024-02-07T00:06:13.907Z,11.97
2024-02-07T00:08:41.809Z,15.40
2024-02-07T00:11:09.474Z,17.00
2024-02-07T00:13:37.302Z,14.53
2024-02-07T00:16:07.306Z,16.60
2024-02-07T00:18:35.029Z,8.60
2024-02-07T00:21:02.672Z,14.50
2024-02-07T00:23:30.347Z,14.60
2024-02-07T00:25:58.250Z,11.07
2024-02-07T00:28:26.074Z,8.23
2024-02-07T00:30:54.373Z,8.20
2024-02-07T00:33:23.372Z,11.43
2024-02-07T00:35:51.607Z,9.17
2024-02-07T00:38:19.378Z,11.93
2024-02-07T00:40:47.110Z,15.10
2024-02-07T00:43:16.210Z,11.27
2024-02-07T00:45:44.143Z,18.43
2024-02-07T00:48:11.983Z,11.17
2024-02-07T00:50:41.052Z,12.00
2024-02-07T00:53:08.706Z,12.03
2024-02-07T00:55:36.535Z,15.10
2024-02-07T00:58:04.518Z,9.70
2024-02-07T01:00:32.165Z,10.27
2024-02-07T01:02:59.827Z,23.37
2024-02-07T01:05:27.573Z,14.50
2024-02-07T01:07:56.616Z,13.33
2024-02-07T01:10:24.325Z,14.93
2024-02-07T01:12:53.098Z,12.50
2024-02-07T01:15:20.772Z,12.03
2024-02-07T01:17:48.482Z,14.90
2024-02-07T01:20:16.553Z,10.73
2024-02-07T01:22:44.549Z,8.70
2024-02-07T01:25:13.976Z,13.03
2024-02-07T01:27:41.652Z,10.25
2024-02-07T01:30:10.061Z,16.67
2024-02-07T01:32:37.749Z,7.93
2024-02-07T01:35:07.994Z,8.60
2024-02-07T01:37:35.790Z,11.18
2024-02-07T01:40:03.663Z,10.20
2024-02-07T01:42:33.670Z,9.73
2024-02-07T01:45:23.447Z,11.73
2024-02-07T01:47:52.123Z,13.87
2024-02-07T01:50:22.721Z,12.27
2024-02-07T01:52:53.752Z,15.13
2024-02-07T01:55:23.008Z,12.40
2024-02-07T01:57:52.585Z,10.47
2024-02-07T02:00:20.732Z,10.63
2024-02-07T02:02:50.121Z,11.10
2024-02-07T02:05:17.940Z,8.67
2024-02-07T02:07:47.042Z,9.10
2024-02-07T02:10:15.758Z,9.23
2024-02-07T02:12:43.987Z,11.90
2024-02-07T02:15:13.020Z,10.10
2024-02-07T02:17:40.821Z,11.30
2024-02-07T02:20:10.540Z,9.47
2024-02-07T02:23:04.339Z,9.77
2024-02-07T02:25:48.024Z,12.63
2024-02-07T02:28:30.745Z,7.57
2024-02-07T02:31:02.565Z,11.97
2024-02-07T02:33:35.091Z,16.80
2024-02-07T02:36:05.176Z,9.80
2024-02-07T02:38:37.020Z,9.40
2024-02-07T02:41:08.315Z,10.70
2024-02-07T02:43:38.233Z,10.00
2024-02-07T02:46:08.408Z,14.70
2024-02-07T02:48:36.221Z,8.40
2024-02-07T02:51:04.140Z,10.77
2024-02-07T02:53:33.617Z,8.60
2024-02-07T02:56:03.372Z,6.20
2024-02-07T02:58:39.182Z,14.00
2024-02-07T03:01:12.694Z,14.37
2024-02-07T03:03:42.769Z,11.37
2024-02-07T03:06:20.463Z,8.47
2024-02-07T03:09:06.550Z,13.07
2024-02-07T03:11:34.510Z,11.03
2024-02-07T03:14:05.337Z,5.63
2024-02-07T03:16:34.512Z,2.33
2024-02-07T03:19:02.400Z,2.97
2024-02-07T03:21:31.424Z,1.53
2024-02-07T03:23:59.247Z,2.28
2024-02-07T03:26:27.832Z,5.50
2024-02-07T03:28:55.741Z,2.23
2024-02-07T03:31:23.565Z,4.68
2024-02-07T03:33:52.675Z,3.92
2024-02-07T03:36:22.679Z,4.28
2024-02-07T03:38:50.350Z,3.00
2024-02-07T03:41:18.110Z,13.55
2024-02-07T03:43:46.026Z,5.15
2024-02-07T03:46:16.110Z,6.25
2024-02-07T03:48:46.517Z,11.18
2024-02-07T03:51:16.868Z,4.70
2024-02-07T03:53:46.055Z,3.38
2024-02-07T03:56:14.050Z,6.22
2024-02-07T03:58:42.581Z,3.60
2024-02-07T04:01:11.915Z,8.45
2024-02-07T04:03:40.345Z,9.45
2024-02-07T04:06:08.158Z,6.60
2024-02-07T04:08:40.940Z,4.20
2024-02-07T04:11:17.044Z,1.63
2024-02-07T04:13:44.345Z,3.78
2024-02-07T04:16:29.607Z,9.20
2024-02-07T04:19:14.875Z,4.43
2024-02-07T04:21:59.927Z,5.25
2024-02-07T04:24:46.350Z,1.63
2024-02-07T04:27:31.738Z,5.15
2024-02-07T04:30:17.121Z,5.40
2024-02-07T04:33:02.494Z,6.05
2024-02-07T04:35:47.905Z,5.00
2024-02-07T04:38:33.166Z,1.55
2024-02-07T04:41:19.793Z,3.03
2024-02-07T04:44:04.856Z,4.82
2024-02-07T04:46:50.456Z,2.15
2024-02-07T04:49:35.747Z,3.58
2024-02-07T04:52:21.026Z,1.85
2024-02-07T04:55:06.213Z,4.00
2024-02-07T04:57:52.815Z,1.90
2024-02-07T05:00:38.009Z,1.77
2024-02-07T05:03:23.495Z,2.20
2024-02-07T05:06:09.097Z,3.13
2024-02-07T05:08:54.388Z,3.70
2024-02-07T05:11:39.500Z,2.95
2024-02-07T05:14:26.235Z,5.55
2024-02-07T05:16:54.038Z,2.15
2024-02-07T05:19:21.874Z,1.60
2024-02-07T05:21:49.614Z,2.95
2024-02-07T05:24:17.286Z,2.33
2024-02-07T05:26:44.955Z,2.80
2024-02-07T05:29:18.044Z,2.75
2024-02-07T05:31:46.145Z,6.25
2024-02-07T05:34:14.544Z,2.63
2024-02-07T05:36:42.349Z,3.20
2024-02-07T05:39:10.066Z,3.00
2024-02-07T05:41:38.657Z,3.55
2024-02-07T05:44:08.212Z,6.30
2024-02-07T05:46:38.421Z,7.38
2024-02-07T05:49:06.298Z,3.50
2024-02-07T05:51:34.358Z,4.57
2024-02-07T05:54:02.089Z,3.20
2024-02-07T05:56:29.741Z,5.78
2024-02-07T05:58:57.476Z,7.85
2024-02-07T06:01:25.412Z,3.28
2024-02-07T06:03:54.980Z,4.85
2024-02-07T06:06:23.693Z,4.75
2024-02-07T06:08:53.317Z,13.18
2024-02-07T06:11:22.674Z,3.58
2024-02-07T06:13:50.469Z,2.20
2024-02-07T06:16:18.270Z,6.32
2024-02-07T06:18:46.073Z,4.95
2024-02-07T06:21:15.243Z,5.82
2024-02-07T06:23:42.969Z,9.15
2024-02-07T06:26:10.828Z,7.38
2024-02-07T06:28:38.662Z,3.17
2024-02-07T06:31:06.351Z,2.25
2024-02-07T06:33:34.273Z,1.92
2024-02-07T06:36:02.021Z,6.28
2024-02-07T06:38:31.098Z,3.90
2024-02-07T06:40:58.884Z,3.58
2024-02-07T06:43:29.165Z,3.67
2024-02-07T06:45:59.293Z,2.55
2024-02-07T06:48:27.030Z,2.53
2024-02-07T06:50:54.824Z,3.45
2024-02-07T06:53:22.511Z,3.30
2024-02-07T06:55:53.298Z,2.65
2024-02-07T06:58:22.588Z,3.05
2024-02-07T07:00:50.683Z,1.70
2024-02-07T07:03:18.538Z,2.72
2024-02-07T07:05:46.482Z,5.53
2024-02-07T07:08:14.186Z,4.90
2024-02-07T07:10:43.138Z,4.35
2024-02-07T07:13:13.112Z,2.67
2024-02-07T07:15:40.784Z,2.90
2024-02-07T07:18:09.791Z,3.40
2024-02-07T07:20:37.481Z,4.80
2024-02-07T07:23:14.744Z,2.53
2024-02-07T07:25:44.328Z,1.33
2024-02-07T07:28:13.639Z,2.00
2024-02-07T07:30:41.497Z,2.08
2024-02-07T07:33:09.348Z,2.10
2024-02-07T07:35:37.205Z,3.28
2024-02-07T07:38:05.828Z,2.78
2024-02-07T07:40:33.841Z,2.30
2024-02-07T07:43:01.773Z,3.38
2024-02-07T07:45:30.802Z,4.10
2024-02-07T07:47:58.649Z,3.40
2024-02-07T07:50:26.814Z,3.55
2024-02-07T07:52:54.769Z,5.53
2024-02-07T07:55:22.586Z,7.70
2024-02-07T07:57:50.392Z,4.70
2024-02-07T08:00:18.748Z,2.92
2024-02-07T08:02:47.771Z,6.95
2024-02-07T08:05:15.634Z,6.95
2024-02-07T08:07:43.597Z,5.32
2024-02-07T08:10:12.422Z,5.00
2024-02-07T08:12:41.001Z,9.10
2024-02-07T08:15:09.422Z,5.70
2024-02-07T08:17:37.175Z,6.03
2024-02-07T08:20:07.467Z,7.32
2024-02-07T08:22:35.140Z,6.05
2024-02-07T08:25:03.055Z,8.88
2024-02-07T08:27:30.745Z,5.63
2024-02-07T08:29:58.418Z,5.80
2024-02-07T08:32:26.197Z,7.45
2024-02-07T08:34:54.379Z,4.43
2024-02-07T08:37:27.194Z,3.97
2024-02-07T08:39:55.171Z,7.82
2024-02-07T08:42:23.004Z,7.25
2024-02-07T08:44:50.776Z,5.70
2024-02-07T08:47:18.505Z,7.68
2024-02-07T08:49:46.200Z,4.47
2024-02-07T08:52:14.024Z,14.77
2024-02-07T08:54:43.108Z,4.10
2024-02-07T08:57:10.776Z,8.52
2024-02-07T08:59:38.437Z,4.97
2024-02-07T09:02:09.431Z,4.38
2024-02-07T09:04:37.335Z,3.10
2024-02-07T09:07:05.627Z,5.30
2024-02-07T09:09:33.302Z,6.82
2024-02-07T09:12:02.301Z,5.80
2024-02-07T09:14:29.940Z,5.72
2024-02-07T09:16:57.819Z,8.00
2024-02-07T09:19:25.605Z,4.72
2024-02-07T09:21:53.310Z,2.90
2024-02-07T09:24:21.013Z,4.72
2024-02-07T09:26:48.752Z,4.50
2024-02-07T09:29:17.990Z,4.70
2024-02-07T09:31:45.666Z,3.78
2024-02-07T09:34:13.454Z,9.68
2024-02-07T09:36:42.085Z,5.88
2024-02-07T09:39:09.812Z,5.65
2024-02-07T09:41:42.462Z,5.47
2024-02-07T09:44:16.095Z,3.90
2024-02-07T09:46:46.326Z,5.93
2024-02-07T09:49:15.684Z,4.32
2024-02-07T09:51:44.293Z,7.40
2024-02-07T09:54:14.044Z,7.00
2024-02-07T09:56:42.669Z,6.43
2024-02-07T09:59:14.102Z,8.30
2024-02-07T10:01:43.268Z,7.43
2024-02-07T10:04:17.779Z,7.70
2024-02-07T10:06:47.189Z,6.68
2024-02-07T10:09:15.563Z,6.15
2024-02-07T10:11:45.211Z,9.25
2024-02-07T10:14:13.941Z,12.65
2024-02-07T10:16:41.924Z,6.18
2024-02-07T10:19:09.680Z,8.30
2024-02-07T10:21:39.346Z,7.40
2024-02-07T10:24:08.193Z,10.05
2024-02-07T10:26:35.907Z,8.32
2024-02-07T10:29:06.958Z,10.30
2024-02-07T10:31:34.816Z,10.85
2024-02-07T10:34:02.598Z,10.23
2024-02-07T10:36:30.371Z,8.57
2024-02-07T10:39:05.083Z,9.85
2024-02-07T10:41:32.980Z,8.80
2024-02-07T10:44:07.890Z,7.72
2024-02-07T10:46:36.039Z,8.18
2024-02-07T10:49:04.498Z,6.28
2024-02-07T10:51:32.809Z,8.90
2024-02-07T10:54:06.181Z,10.75
2024-02-07T10:56:36.791Z,10.63
2024-02-07T10:59:05.769Z,12.85
2024-02-07T11:01:35.093Z,10.63
2024-02-07T11:04:03.880Z,12.30
2024-02-07T11:06:33.851Z,9.20
2024-02-07T11:09:01.863Z,15.70
2024-02-07T11:11:30.626Z,14.02
2024-02-07T11:14:00.776Z,12.65
2024-02-07T11:16:28.695Z,14.20
2024-02-07T11:18:56.702Z,14.98
2024-02-07T11:21:28.295Z,16.98
2024-02-07T11:23:57.587Z,11.07
2024-02-07T11:26:26.319Z,10.70
2024-02-07T11:28:54.341Z,13.95
2024-02-07T11:31:25.252Z,17.08
2024-02-07T11:33:54.503Z,12.45
2024-02-07T11:36:22.943Z,12.15
2024-02-07T11:38:54.936Z,18.67
2024-02-07T11:41:23.399Z,16.77
2024-02-07T11:43:51.992Z,13.60
2024-02-07T11:46:21.350Z,7.68
2024-02-07T11:48:54.226Z,14.73
2024-02-07T11:51:23.195Z,13.13
2024-02-07T11:53:50.884Z,11.38
2024-02-07T11:56:21.977Z,11.40
2024-02-07T11:58:53.748Z,10.45
2024-02-07T12:01:23.541Z,13.75
2024-02-07T12:03:57.794Z,17.10
2024-02-07T12:06:26.424Z,15.65
2024-02-07T12:08:55.036Z,9.38
2024-02-07T12:11:22.683Z,20.67
2024-02-07T12:13:51.493Z,13.55
2024-02-07T12:16:20.779Z,16.27
2024-02-07T12:18:48.757Z,18.17
2024-02-07T12:21:18.219Z,20.05
2024-02-07T12:23:46.043Z,12.13
2024-02-07T12:26:13.813Z,14.10
2024-02-07T12:28:41.913Z,19.55
2024-02-07T12:31:09.618Z,20.50
2024-02-07T12:33:37.843Z,14.15
2024-02-07T12:36:09.298Z,16.02
2024-02-07T12:38:39.011Z,13.02
2024-02-07T12:41:07.959Z,14.70
2024-02-07T12:43:35.788Z,13.98
2024-02-07T12:46:06.028Z,13.73
2024-02-07T12:48:34.398Z,12.88
2024-02-07T12:51:03.721Z,15.80
2024-02-07T12:53:31.514Z,13.90
2024-02-07T12:56:00.715Z,13.50
2024-02-07T12:58:29.206Z,14.52
2024-02-07T13:01:03.669Z,13.32
2024-02-07T13:03:33.625Z,14.48
2024-02-07T13:06:01.541Z,15.85
2024-02-07T13:08:29.313Z,20.20
2024-02-07T13:11:00.268Z,11.50
2024-02-07T13:13:29.434Z,12.57
2024-02-07T13:15:59.945Z,11.57
2024-02-07T13:18:27.950Z,14.60
2024-02-07T13:20:55.841Z,10.98
2024-02-07T13:23:27.538Z,14.65
2024-02-07T13:25:57.174Z,9.88
2024-02-07T13:28:27.170Z,14.57
2024-02-07T13:30:57.920Z,18.55
2024-02-07T13:33:25.767Z,18.05
2024-02-07T13:35:53.537Z,13.70
2024-02-07T13:38:27.488Z,11.82
2024-02-07T13:41:02.011Z,12.75
2024-02-07T13:43:29.824Z,13.50
2024-02-07T13:45:58.885Z,20.05
2024-02-07T13:48:29.572Z,15.30
2024-02-07T13:50:58.180Z,15.50
2024-02-07T13:53:25.891Z,20.30
2024-02-07T13:55:53.617Z,15.63
2024-02-07T13:58:21.427Z,13.98
2024-02-07T14:00:48.167Z,18.27
2024-02-07T14:03:17.163Z,14.95
2024-02-07T14:05:44.932Z,12.88
2024-02-07T14:08:13.095Z,12.15
2024-02-07T14:10:41.047Z,17.08
2024-02-07T14:13:10.545Z,17.17
2024-02-07T14:15:38.646Z,11.35
2024-02-07T14:18:06.562Z,11.48
2024-02-07T14:20:35.619Z,13.38
2024-02-07T14:23:03.466Z,20.45
2024-02-07T14:25:31.512Z,13.00
2024-02-07T14:27:59.412Z,15.32
2024-02-07T14:30:28.773Z,12.45
2024-02-07T14:32:56.556Z,13.77
2024-02-07T14:35:24.382Z,12.32
2024-02-07T14:37:53.534Z,15.73
2024-02-07T14:40:21.774Z,7.07
2024-02-07T14:42:49.449Z,9.90
2024-02-07T14:45:17.503Z,15.52
2024-02-07T14:47:45.311Z,11.70
2024-02-07T14:50:13.555Z,11.05
2024-02-07T14:52:41.378Z,11.30
2024-02-07T14:55:13.058Z,13.15
2024-02-07T14:57:40.767Z,16.52
2024-02-07T15:00:09.828Z,11.05
2024-02-07T15:02:37.532Z,14.05
2024-02-07T15:05:05.694Z,17.50
2024-02-07T15:07:33.415Z,14.65
2024-02-07T15:10:01.126Z,24.15
2024-02-07T15:12:30.093Z,17.30
2024-02-07T15:14:57.753Z,13.80
2024-02-07T15:17:25.391Z,10.57
2024-02-07T15:19:53.165Z,9.98
2024-02-07T15:22:20.868Z,17.63
2024-02-07T15:24:48.535Z,12.77
2024-02-07T15:27:16.178Z,13.68
2024-02-07T15:29:45.273Z,12.68
2024-02-07T15:32:12.919Z,12.13
2024-02-07T15:34:40.774Z,10.60
2024-02-07T15:37:08.521Z,16.50
2024-02-07T15:39:37.399Z,11.45
2024-02-07T15:42:06.422Z,17.33
2024-02-07T15:44:34.098Z,12.20
2024-02-07T15:47:03.383Z,8.00
2024-02-07T15:49:32.860Z,18.15
2024-02-07T15:52:00.651Z,11.20
2024-02-07T15:54:28.338Z,16.33
2024-02-07T15:57:01.607Z,14.48
2024-02-07T15:59:29.486Z,16.63
2024-02-07T16:01:57.822Z,18.50
2024-02-07T16:04:27.338Z,14.98
2024-02-07T16:06:56.966Z,13.43
2024-02-07T16:09:25.136Z,8.07
2024-02-07T16:11:52.825Z,9.20
2024-02-07T16:14:22.278Z,9.32
2024-02-07T16:16:50.022Z,12.43
2024-02-07T16:19:17.809Z,8.75
2024-02-07T16:21:46.949Z,10.27
2024-02-07T16:24:14.721Z,10.82
2024-02-07T16:26:42.429Z,10.73
2024-02-07T16:29:10.150Z,11.55
2024-02-07T16:31:37.795Z,14.43
2024-02-07T16:34:05.536Z,10.15
2024-02-07T16:36:33.225Z,13.48
2024-02-07T16:39:02.189Z,18.00
2024-02-07T16:41:30.254Z,13.68
2024-02-07T16:43:57.963Z,12.13
2024-02-07T16:46:25.778Z,13.75
2024-02-07T16:48:53.825Z,10.30
2024-02-07T16:51:21.778Z,15.75
2024-02-07T16:53:49.420Z,14.20
2024-02-07T16:56:20.355Z,10.63
2024-02-07T16:58:48.223Z,16.25
2024-02-07T17:01:21.101Z,10.85
2024-02-07T17:03:48.845Z,9.57
2024-02-07T17:06:16.806Z,16.13
2024-02-07T17:08:44.508Z,10.27
2024-02-07T17:11:12.610Z,12.90
2024-02-07T17:13:42.193Z,17.45
2024-02-07T17:16:09.904Z,15.02
2024-02-07T17:18:37.595Z,17.30
2024-02-07T17:21:05.553Z,10.30
2024-02-07T17:23:34.458Z,24.10
2024-02-07T17:26:02.288Z,16.45
2024-02-07T17:28:30.033Z,19.50
2024-02-07T17:30:59.173Z,16.75
2024-02-07T17:33:27.114Z,15.20
2024-02-07T17:35:55.049Z,24.38
2024-02-07T17:38:22.764Z,21.73
2024-02-07T17:40:51.174Z,14.88
2024-02-07T17:43:19.153Z,19.38
2024-02-07T17:45:46.824Z,16.42
2024-02-07T17:48:15.954Z,16.38
2024-02-07T17:50:43.801Z,20.55
2024-02-07T17:53:11.532Z,16.83
2024-02-07T17:55:40.379Z,17.60
2024-02-07T17:58:08.631Z,20.50
2024-02-07T18:00:36.264Z,18.85
2024-02-07T18:03:04.044Z,19.17
2024-02-07T18:05:34.246Z,14.13
2024-02-07T18:08:02.265Z,16.42
2024-02-07T18:10:33.034Z,20.27
2024-02-07T18:13:01.402Z,23.15
2024-02-07T18:15:29.106Z,16.45
2024-02-07T18:17:56.945Z,18.17
2024-02-07T18:20:27.280Z,21.83
2024-02-07T18:22:56.437Z,13.25
2024-02-07T18:25:24.357Z,21.67
2024-02-07T18:27:52.035Z,20.73
2024-02-07T18:30:20.553Z,18.48
2024-02-07T18:32:49.375Z,18.30
2024-02-07T18:35:17.496Z,17.70
2024-02-07T18:37:45.308Z,23.52
2024-02-07T18:40:14.974Z,21.73
2024-02-07T18:42:42.632Z,19.45
2024-02-07T18:45:12.140Z,17.92
2024-02-07T18:47:39.885Z,19.58
2024-02-07T18:50:08.788Z,14.65
2024-02-07T18:52:39.280Z,25.08
2024-02-07T18:55:07.834Z,15.32
2024-02-07T18:57:39.177Z,17.52
2024-02-07T19:00:09.560Z,23.70
2024-02-07T19:02:37.581Z,16.50
2024-02-07T19:05:05.962Z,20.30
2024-02-07T19:07:33.806Z,16.58
2024-02-07T19:10:01.493Z,15.95
2024-02-07T19:12:29.620Z,14.30
2024-02-07T19:14:58.632Z,19.38
2024-02-07T19:17:26.299Z,22.33
2024-02-07T19:19:54.157Z,16.00
2024-02-07T19:22:22.422Z,28.92
2024-02-07T19:24:50.114Z,21.17
2024-02-07T19:27:17.767Z,18.88
2024-02-07T19:29:46.460Z,22.83
2024-02-07T19:32:16.798Z,18.83
2024-02-07T19:34:45.472Z,18.55
2024-02-07T19:37:13.263Z,22.73
2024-02-07T19:39:41.045Z,22.05
2024-02-07T19:42:08.809Z,16.80
2024-02-07T19:44:36.529Z,21.15
2024-02-07T19:47:04.410Z,19.50
2024-02-07T19:49:35.863Z,13.82
2024-02-07T19:52:03.847Z,26.15
2024-02-07T19:54:31.509Z,15.95
2024-02-07T19:57:00.390Z,19.15
2024-02-07T19:59:28.066Z,17.85
2024-02-07T20:01:55.989Z,24.00
2024-02-07T20:04:23.726Z,15.73
2024-02-07T20:06:54.458Z,23.25
2024-02-07T20:09:22.272Z,19.30
2024-02-07T20:11:50.088Z,15.82
2024-02-07T20:14:19.298Z,12.68
2024-02-07T20:16:47.714Z,20.67
2024-02-07T20:19:15.620Z,18.65
2024-02-07T20:21:44.457Z,16.17
2024-02-07T20:24:13.549Z,21.85
2024-02-07T20:26:41.282Z,18.70
2024-02-07T20:29:08.988Z,26.45
2024-02-07T20:31:36.697Z,14.88
2024-02-07T20:34:04.534Z,14.23
2024-02-07T20:36:32.207Z,16.38
2024-02-07T20:39:05.477Z,24.80
2024-02-07T20:41:41.763Z,17.63
2024-02-07T20:44:10.961Z,14.52
2024-02-07T20:46:38.730Z,23.48
2024-02-07T20:49:06.409Z,16.30
2024-02-07T20:51:34.107Z,18.50
2024-02-07T20:54:01.810Z,19.48
2024-02-07T20:56:29.408Z,14.75
2024-02-07T20:58:58.626Z,14.25
2024-02-07T21:01:26.452Z,11.77
2024-02-07T21:03:55.873Z,12.48
2024-02-07T21:06:28.961Z,19.52
2024-02-07T21:08:57.404Z,14.85
2024-02-07T21:11:25.500Z,18.13
2024-02-07T21:13:53.475Z,16.38
2024-02-07T21:16:22.601Z,12.48
2024-02-07T21:18:51.471Z,15.65
2024-02-07T21:21:19.328Z,16.35
2024-02-07T21:23:47.319Z,16.85
2024-02-07T21:26:15.071Z,16.10
2024-02-07T21:28:42.786Z,17.65
2024-02-07T21:31:10.425Z,22.38
2024-02-07T21:33:39.820Z,18.73
2024-02-07T21:36:07.960Z,13.43
2024-02-07T21:38:35.612Z,11.77
2024-02-07T21:41:03.357Z,16.13
2024-02-07T21:43:31.037Z,17.08
2024-02-07T21:45:58.728Z,14.38
2024-02-07T21:48:26.800Z,19.55
2024-02-07T21:50:55.883Z,15.32
2024-02-07T21:53:25.169Z,16.67
2024-02-07T21:55:54.644Z,16.48
2024-02-07T21:58:22.517Z,20.55
2024-02-07T22:00:50.440Z,18.75
2024-02-07T22:03:18.761Z,14.20
2024-02-07T22:05:46.424Z,15.02
2024-02-07T22:08:15.555Z,16.50
2024-02-07T22:10:43.363Z,20.83
2024-02-07T22:13:11.041Z,17.25
2024-02-07T22:15:38.716Z,21.70
2024-02-07T22:18:06.726Z,17.67
2024-02-07T22:20:34.407Z,24.02
2024-02-07T22:23:02.087Z,24.38
2024-02-07T22:25:31.171Z,22.95
2024-02-07T22:27:58.846Z,23.10
2024-02-07T22:30:26.531Z,25.67
2024-02-07T22:32:54.358Z,21.30
2024-02-07T22:35:22.322Z,20.98
2024-02-07T22:37:50.636Z,17.98
2024-02-07T22:40:18.654Z,24.55
2024-02-07T22:42:47.652Z,29.45
2024-02-07T22:45:15.386Z,20.35
2024-02-07T22:47:43.086Z,26.13
2024-02-07T22:50:11.578Z,33.22
2024-02-07T22:52:39.330Z,22.65
2024-02-07T22:55:07.325Z,30.65
2024-02-07T22:57:34.989Z,28.30
2024-02-07T23:00:05.369Z,25.55
2024-02-07T23:02:33.240Z,23.83
2024-02-07T23:05:01.015Z,32.20
2024-02-07T23:07:28.729Z,27.45
2024-02-07T23:09:56.494Z,26.33
2024-02-07T23:12:24.188Z,26.20
2024-02-07T23:14:51.852Z,26.13
2024-02-07T23:17:20.948Z,23.85
2024-02-07T23:19:48.691Z,31.25
2024-02-07T23:22:16.353Z,25.08
2024-02-07T23:24:44.043Z,23.48
2024-02-07T23:27:11.662Z,21.77
2024-02-07T23:29:39.363Z,27.55
2024-02-07T23:32:08.409Z,22.42
2024-02-07T23:34:40.301Z,26.67
2024-02-07T23:37:08.809Z,23.90
2024-02-07T23:39:36.941Z,25.95
2024-02-07T23:42:04.883Z,22.55
2024-02-07T23:44:35.134Z,14.70
2024-02-07T23:47:03.274Z,23.63
2024-02-07T23:49:30.964Z,27.73
2024-02-07T23:51:59.948Z,20.55
2024-02-07T23:54:27.671Z,19.20
2024-02-07T23:56:55.319Z,29.95
2024-02-07T23:59:23.127Z,21.15
